Alert, Indiana
Current Conditions -  °F | °C
As of 6:50 PM on Wednesday 22 Oct 2014 (Local Time) from KBAK Reporting Station
Clear Clear  
Wind Chill: 50°   Ceiling: Unl
Heat Index: 50°   Visibility: 10mi
Dew Point: 41°   Wind: 6mph
Humidity: 71%   Direction: 50°NE
Pressure: 30.26"   Gusts: NA
Location:  39.1743°N, 85.6083°W
Report Text: KBAK 222250Z 05005KT 10SM SKC 10/05 A3026
Loading
Personal Weather Stations






























Interactive Weather Map
Tropical Storm Tracking
New forecast layout! Learn more

10-Day Weather Forecast

Advertisements
Track Severe Weather on mobile